sensor_id;sensor_type;location;lat;lon;timestamp;P1;durP1;ratioP1;P2;durP2;ratioP2
8544;SDS011;4310;51.054;6.994;2022-09-09T00:00:14;18.25;;;17.25;;
8544;SDS011;4310;51.054;6.994;2022-09-09T00:01:23;18.92;;;17.77;;
8544;SDS011;4310;51.054;6.994;2022-09-09T00:02:27;19.25;;;18.20;;
8544;SDS011;4310;51.054;6.994;2022-09-09T00:03:32;21.93;;;20.82;;
8544;SDS011;4310;51.054;6.994;2022-09-09T00:04:37;24.43;;;23.12;;
8544;SDS011;4310;51.054;6.994;2022-09-09T00:05:42;22.35;;;21.12;;
8544;SDS011;4310;51.054;6.994;2022-09-09T00:06:49;26.17;;;24.85;;
8544;SDS011;4310;51.054;6.994;2022-09-09T00:09:05;27.75;;;26.35;;
8544;SDS011;4310;51.054;6.994;2022-09-09T00:10:13;28.92;;;27.42;;
8544;SDS011;4310;51.054;6.994;2022-09-09T00:11:18;25.25;;;23.95;;
8544;SDS011;4310;51.054;6.994;2022-09-09T00:12:25;25.92;;;24.63;;
8544;SDS011;4310;51.054;6.994;2022-09-09T00:13:29;29.10;;;27.90;;
8544;SDS011;4310;51.054;6.994;2022-09-09T00:14:37;27.90;;;26.50;;
8544;SDS011;4310;51.054;6.994;2022-09-09T00:15:41;27.07;;;25.90;;
8544;SDS011;4310;51.054;6.994;2022-09-09T00:16:47;29.32;;;27.90;;
8544;SDS011;4310;51.054;6.994;2022-09-09T00:19:04;29.45;;;27.87;;
8544;SDS011;4310;51.054;6.994;2022-09-09T00:20:11;29.80;;;28.27;;
8544;SDS011;4310;51.054;6.994;2022-09-09T00:21:16;26.95;;;25.37;;
8544;SDS011;4310;51.054;6.994;2022-09-09T00:22:20;28.60;;;27.25;;
8544;SDS011;4310;51.054;6.994;2022-09-09T00:23:25;30.95;;;29.55;;
8544;SDS011;4310;51.054;6.994;2022-09-09T00:24:32;29.60;;;28.17;;
8544;SDS011;4310;51.054;6.994;2022-09-09T00:25:37;27.48;;;26.07;;
8544;SDS011;4310;51.054;6.994;2022-09-09T00:26:42;27.85;;;26.60;;
8544;SDS011;4310;51.054;6.994;2022-09-09T00:27:47;29.20;;;27.70;;
8544;SDS011;4310;51.054;6.994;2022-09-09T00:28:52;28.15;;;26.65;;
8544;SDS011;4310;51.054;6.994;2022-09-09T00:29:58;31.20;;;29.60;;
8544;SDS011;4310;51.054;6.994;2022-09-09T00:31:07;28.55;;;27.22;;
8544;SDS011;4310;51.054;6.994;2022-09-09T00:32:13;27.48;;;26.05;;
8544;SDS011;4310;51.054;6.994;2022-09-09T00:33:18;26.85;;;25.55;;
8544;SDS011;4310;51.054;6.994;2022-09-09T00:34:23;24.92;;;23.80;;
8544;SDS011;4310;51.054;6.994;2022-09-09T00:35:29;24.25;;;23.05;;
8544;SDS011;4310;51.054;6.994;2022-09-09T00:36:33;27.07;;;25.85;;
8544;SDS011;4310;51.054;6.994;2022-09-09T00:38:51;21.42;;;20.50;;
8544;SDS011;4310;51.054;6.994;2022-09-09T00:39:55;21.80;;;20.52;;
8544;SDS011;4310;51.054;6.994;2022-09-09T00:41:01;22.27;;;21.07;;
8544;SDS011;4310;51.054;6.994;2022-09-09T00:42:10;21.40;;;20.32;;
8544;SDS011;4310;51.054;6.994;2022-09-09T00:43:18;19.65;;;18.62;;
8544;SDS011;4310;51.054;6.994;2022-09-09T00:44:28;19.42;;;18.23;;
8544;SDS011;4310;51.054;6.994;2022-09-09T00:46:57;17.05;;;16.10;;
8544;SDS011;4310;51.054;6.994;2022-09-09T00:48:02;16.87;;;16.02;;
8544;SDS011;4310;51.054;6.994;2022-09-09T00:49:09;16.42;;;15.60;;
8544;SDS011;4310;51.054;6.994;2022-09-09T00:50:17;18.92;;;17.92;;
8544;SDS011;4310;51.054;6.994;2022-09-09T00:51:23;20.55;;;19.55;;
8544;SDS011;4310;51.054;6.994;2022-09-09T00:52:32;20.82;;;19.73;;
8544;SDS011;4310;51.054;6.994;2022-09-09T00:53:38;20.55;;;19.55;;
8544;SDS011;4310;51.054;6.994;2022-09-09T00:54:44;21.25;;;20.25;;
8544;SDS011;4310;51.054;6.994;2022-09-09T00:55:51;20.08;;;18.98;;
8544;SDS011;4310;51.054;6.994;2022-09-09T00:56:56;20.37;;;19.27;;
8544;SDS011;4310;51.054;6.994;2022-09-09T00:58:00;19.87;;;18.87;;
8544;SDS011;4310;51.054;6.994;2022-09-09T00:59:05;19.40;;;18.43;;
8544;SDS011;4310;51.054;6.994;2022-09-09T01:00:22;18.10;;;17.10;;
8544;SDS011;4310;51.054;6.994;2022-09-09T01:01:26;16.82;;;15.93;;
8544;SDS011;4310;51.054;6.994;2022-09-09T01:02:31;17.85;;;16.85;;
8544;SDS011;4310;51.054;6.994;2022-09-09T01:03:36;17.45;;;16.45;;
8544;SDS011;4310;51.054;6.994;2022-09-09T01:04:40;14.98;;;14.23;;
8544;SDS011;4310;51.054;6.994;2022-09-09T01:05:45;15.98;;;15.08;;
8544;SDS011;4310;51.054;6.994;2022-09-09T01:06:51;16.87;;;15.85;;
8544;SDS011;4310;51.054;6.994;2022-09-09T01:07:55;15.43;;;14.63;;
8544;SDS011;4310;51.054;6.994;2022-09-09T01:09:14;15.35;;;14.63;;
8544;SDS011;4310;51.054;6.994;2022-09-09T01:10:21;14.83;;;14.07;;
8544;SDS011;4310;51.054;6.994;2022-09-09T01:11:26;16.07;;;15.28;;
8544;SDS011;4310;51.054;6.994;2022-09-09T01:12:32;15.43;;;14.63;;
8544;SDS011;4310;51.054;6.994;2022-09-09T01:13:36;15.80;;;15.00;;
8544;SDS011;4310;51.054;6.994;2022-09-09T01:14:41;12.55;;;11.95;;
8544;SDS011;4310;51.054;6.994;2022-09-09T01:15:46;12.75;;;12.05;;
8544;SDS011;4310;51.054;6.994;2022-09-09T01:16:51;14.98;;;14.28;;
8544;SDS011;4310;51.054;6.994;2022-09-09T01:17:58;12.98;;;12.37;;
8544;SDS011;4310;51.054;6.994;2022-09-09T01:19:03;15.78;;;14.85;;
8544;SDS011;4310;51.054;6.994;2022-09-09T01:20:10;15.90;;;14.95;;
8544;SDS011;4310;51.054;6.994;2022-09-09T01:21:17;14.10;;;13.30;;
8544;SDS011;4310;51.054;6.994;2022-09-09T01:22:23;14.53;;;13.72;;
8544;SDS011;4310;51.054;6.994;2022-09-09T01:23:32;11.65;;;10.95;;
8544;SDS011;4310;51.054;6.994;2022-09-09T01:24:38;11.18;;;10.48;;
8544;SDS011;4310;51.054;6.994;2022-09-09T01:25:59;15.07;;;14.30;;
8544;SDS011;4310;51.054;6.994;2022-09-09T01:26:55;15.30;;;14.60;;
8544;SDS011;4310;51.054;6.994;2022-09-09T01:28:00;15.83;;;14.83;;
8544;SDS011;4310;51.054;6.994;2022-09-09T01:29:07;11.08;;;10.32;;
8544;SDS011;4310;51.054;6.994;2022-09-09T01:30:11;11.45;;;10.72;;
8544;SDS011;4310;51.054;6.994;2022-09-09T01:31:17;12.80;;;12.18;;
8544;SDS011;4310;51.054;6.994;2022-09-09T01:32:39;13.30;;;12.63;;
8544;SDS011;4310;51.054;6.994;2022-09-09T01:33:43;9.15;;;8.50;;
8544;SDS011;4310;51.054;6.994;2022-09-09T01:34:46;9.95;;;9.45;;
8544;SDS011;4310;51.054;6.994;2022-09-09T01:35:50;8.55;;;7.95;;
8544;SDS011;4310;51.054;6.994;2022-09-09T01:36:57;8.45;;;7.85;;
8544;SDS011;4310;51.054;6.994;2022-09-09T01:38:01;9.57;;;8.97;;
8544;SDS011;4310;51.054;6.994;2022-09-09T01:39:05;8.90;;;8.33;;
8544;SDS011;4310;51.054;6.994;2022-09-09T01:40:08;10.13;;;9.53;;
8544;SDS011;4310;51.054;6.994;2022-09-09T01:42:24;10.25;;;9.70;;
8544;SDS011;4310;51.054;6.994;2022-09-09T01:43:27;9.73;;;9.13;;
8544;SDS011;4310;51.054;6.994;2022-09-09T01:44:32;9.55;;;9.00;;
8544;SDS011;4310;51.054;6.994;2022-09-09T01:45:36;9.73;;;9.23;;
8544;SDS011;4310;51.054;6.994;2022-09-09T01:46:40;9.30;;;8.80;;
8544;SDS011;4310;51.054;6.994;2022-09-09T01:47:43;7.47;;;7.05;;
8544;SDS011;4310;51.054;6.994;2022-09-09T01:48:48;7.70;;;7.30;;
8544;SDS011;4310;51.054;6.994;2022-09-09T01:49:52;7.97;;;7.58;;
8544;SDS011;4310;51.054;6.994;2022-09-09T01:50:56;8.30;;;7.90;;
8544;SDS011;4310;51.054;6.994;2022-09-09T01:52:00;7.58;;;7.08;;
8544;SDS011;4310;51.054;6.994;2022-09-09T01:53:04;7.55;;;7.00;;
8544;SDS011;4310;51.054;6.994;2022-09-09T01:54:08;7.92;;;7.42;;
8544;SDS011;4310;51.054;6.994;2022-09-09T01:55:11;8.13;;;7.62;;
8544;SDS011;4310;51.054;6.994;2022-09-09T01:56:19;9.43;;;8.75;;
8544;SDS011;4310;51.054;6.994;2022-09-09T01:57:24;9.33;;;8.68;;
8544;SDS011;4310;51.054;6.994;2022-09-09T01:58:31;10.20;;;9.53;;
8544;SDS011;4310;51.054;6.994;2022-09-09T01:59:43;9.53;;;8.83;;
8544;SDS011;4310;51.054;6.994;2022-09-09T02:00:48;10.15;;;9.33;;
8544;SDS011;4310;51.054;6.994;2022-09-09T02:03:07;10.08;;;9.43;;
8544;SDS011;4310;51.054;6.994;2022-09-09T02:04:13;9.80;;;9.20;;
8544;SDS011;4310;51.054;6.994;2022-09-09T02:05:19;10.70;;;10.00;;
8544;SDS011;4310;51.054;6.994;2022-09-09T02:06:25;8.88;;;8.18;;
8544;SDS011;4310;51.054;6.994;2022-09-09T02:07:34;10.00;;;9.45;;
8544;SDS011;4310;51.054;6.994;2022-09-09T02:08:38;9.33;;;8.63;;
8544;SDS011;4310;51.054;6.994;2022-09-09T02:09:42;9.10;;;8.50;;
8544;SDS011;4310;51.054;6.994;2022-09-09T02:10:48;9.15;;;8.63;;
8544;SDS011;4310;51.054;6.994;2022-09-09T02:11:53;8.63;;;8.05;;
8544;SDS011;4310;51.054;6.994;2022-09-09T02:13:00;8.35;;;7.85;;
8544;SDS011;4310;51.054;6.994;2022-09-09T02:14:04;8.93;;;8.43;;
8544;SDS011;4310;51.054;6.994;2022-09-09T02:15:11;8.67;;;8.07;;
8544;SDS011;4310;51.054;6.994;2022-09-09T02:16:15;7.92;;;7.53;;
8544;SDS011;4310;51.054;6.994;2022-09-09T02:17:20;8.98;;;8.30;;
8544;SDS011;4310;51.054;6.994;2022-09-09T02:18:25;8.60;;;8.10;;
8544;SDS011;4310;51.054;6.994;2022-09-09T02:19:29;9.60;;;8.95;;
8544;SDS011;4310;51.054;6.994;2022-09-09T02:20:35;9.93;;;9.33;;
8544;SDS011;4310;51.054;6.994;2022-09-09T02:21:40;11.22;;;10.45;;
8544;SDS011;4310;51.054;6.994;2022-09-09T02:23:56;10.68;;;9.90;;
8544;SDS011;4310;51.054;6.994;2022-09-09T02:25:02;10.38;;;9.85;;
8544;SDS011;4310;51.054;6.994;2022-09-09T02:26:07;11.10;;;10.40;;
8544;SDS011;4310;51.054;6.994;2022-09-09T02:27:12;10.95;;;10.15;;
8544;SDS011;4310;51.054;6.994;2022-09-09T02:28:18;9.48;;;8.98;;
8544;SDS011;4310;51.054;6.994;2022-09-09T02:29:26;9.75;;;9.15;;
8544;SDS011;4310;51.054;6.994;2022-09-09T02:30:29;9.18;;;8.58;;
8544;SDS011;4310;51.054;6.994;2022-09-09T02:31:34;8.50;;;7.95;;
8544;SDS011;4310;51.054;6.994;2022-09-09T02:32:39;9.20;;;8.63;;
8544;SDS011;4310;51.054;6.994;2022-09-09T02:33:44;9.13;;;8.33;;
8544;SDS011;4310;51.054;6.994;2022-09-09T02:34:49;8.60;;;8.00;;
8544;SDS011;4310;51.054;6.994;2022-09-09T02:35:54;7.95;;;7.40;;
8544;SDS011;4310;51.054;6.994;2022-09-09T02:37:01;7.80;;;7.33;;
8544;SDS011;4310;51.054;6.994;2022-09-09T02:39:17;7.30;;;6.72;;
8544;SDS011;4310;51.054;6.994;2022-09-09T02:40:22;7.30;;;6.90;;
8544;SDS011;4310;51.054;6.994;2022-09-09T02:41:26;7.60;;;7.03;;
8544;SDS011;4310;51.054;6.994;2022-09-09T02:42:31;7.35;;;6.90;;
8544;SDS011;4310;51.054;6.994;2022-09-09T02:43:34;7.50;;;7.00;;
8544;SDS011;4310;51.054;6.994;2022-09-09T02:44:39;6.92;;;6.33;;
8544;SDS011;4310;51.054;6.994;2022-09-09T02:45:44;7.25;;;6.78;;
8544;SDS011;4310;51.054;6.994;2022-09-09T02:46:56;7.22;;;6.15;;
8544;SDS011;4310;51.054;6.994;2022-09-09T02:48:00;6.42;;;6.03;;
8544;SDS011;4310;51.054;6.994;2022-09-09T02:49:06;7.12;;;6.53;;
8544;SDS011;4310;51.054;6.994;2022-09-09T02:50:12;6.30;;;5.80;;
8544;SDS011;4310;51.054;6.994;2022-09-09T02:51:17;6.47;;;6.03;;
8544;SDS011;4310;51.054;6.994;2022-09-09T02:52:22;6.58;;;6.08;;
8544;SDS011;4310;51.054;6.994;2022-09-09T02:53:28;6.30;;;5.90;;
8544;SDS011;4310;51.054;6.994;2022-09-09T02:54:32;6.62;;;6.22;;
8544;SDS011;4310;51.054;6.994;2022-09-09T02:55:39;6.30;;;5.90;;
8544;SDS011;4310;51.054;6.994;2022-09-09T02:56:46;6.40;;;5.85;;
8544;SDS011;4310;51.054;6.994;2022-09-09T02:57:49;6.73;;;6.17;;
8544;SDS011;4310;51.054;6.994;2022-09-09T02:58:53;6.60;;;6.12;;
8544;SDS011;4310;51.054;6.994;2022-09-09T02:59:57;6.22;;;5.72;;
8544;SDS011;4310;51.054;6.994;2022-09-09T03:01:02;6.35;;;5.55;;
8544;SDS011;4310;51.054;6.994;2022-09-09T03:03:18;5.50;;;5.20;;
8544;SDS011;4310;51.054;6.994;2022-09-09T03:04:22;6.35;;;5.85;;
8544;SDS011;4310;51.054;6.994;2022-09-09T03:05:27;6.00;;;5.50;;
8544;SDS011;4310;51.054;6.994;2022-09-09T03:06:30;7.03;;;6.53;;
8544;SDS011;4310;51.054;6.994;2022-09-09T03:07:34;7.17;;;6.47;;
8544;SDS011;4310;51.054;6.994;2022-09-09T03:08:38;7.03;;;6.55;;
8544;SDS011;4310;51.054;6.994;2022-09-09T03:09:42;7.35;;;6.75;;
8544;SDS011;4310;51.054;6.994;2022-09-09T03:10:46;6.92;;;6.53;;
8544;SDS011;4310;51.054;6.994;2022-09-09T03:11:50;7.03;;;6.70;;
8544;SDS011;4310;51.054;6.994;2022-09-09T03:12:53;7.40;;;6.90;;
8544;SDS011;4310;51.054;6.994;2022-09-09T03:13:57;6.45;;;5.87;;
8544;SDS011;4310;51.054;6.994;2022-09-09T03:16:12;7.95;;;7.45;;
8544;SDS011;4310;51.054;6.994;2022-09-09T03:17:17;7.28;;;6.78;;
8544;SDS011;4310;51.054;6.994;2022-09-09T03:18:21;7.95;;;7.28;;
8544;SDS011;4310;51.054;6.994;2022-09-09T03:19:25;7.35;;;6.85;;
8544;SDS011;4310;51.054;6.994;2022-09-09T03:20:30;7.50;;;6.95;;
8544;SDS011;4310;51.054;6.994;2022-09-09T03:22:45;8.80;;;8.00;;
8544;SDS011;4310;51.054;6.994;2022-09-09T03:23:49;9.08;;;8.58;;
8544;SDS011;4310;51.054;6.994;2022-09-09T03:24:52;10.15;;;9.55;;
8544;SDS011;4310;51.054;6.994;2022-09-09T03:25:56;9.63;;;8.78;;
8544;SDS011;4310;51.054;6.994;2022-09-09T03:27:01;9.38;;;8.70;;
8544;SDS011;4310;51.054;6.994;2022-09-09T03:28:04;9.43;;;8.90;;
8544;SDS011;4310;51.054;6.994;2022-09-09T03:30:20;9.55;;;8.95;;
8544;SDS011;4310;51.054;6.994;2022-09-09T03:31:23;10.68;;;9.98;;
8544;SDS011;4310;51.054;6.994;2022-09-09T03:32:27;11.35;;;10.58;;
8544;SDS011;4310;51.054;6.994;2022-09-09T03:33:31;11.00;;;10.08;;
8544;SDS011;4310;51.054;6.994;2022-09-09T03:34:36;11.18;;;10.38;;
8544;SDS011;4310;51.054;6.994;2022-09-09T03:35:45;10.48;;;9.83;;
8544;SDS011;4310;51.054;6.994;2022-09-09T03:36:51;11.45;;;10.65;;
8544;SDS011;4310;51.054;6.994;2022-09-09T03:37:54;11.10;;;10.40;;
8544;SDS011;4310;51.054;6.994;2022-09-09T03:38:58;11.00;;;10.30;;
8544;SDS011;4310;51.054;6.994;2022-09-09T03:40:03;11.20;;;10.60;;
8544;SDS011;4310;51.054;6.994;2022-09-09T03:41:07;11.90;;;11.22;;
8544;SDS011;4310;51.054;6.994;2022-09-09T03:42:12;12.40;;;11.55;;
8544;SDS011;4310;51.054;6.994;2022-09-09T03:43:17;12.30;;;11.40;;
8544;SDS011;4310;51.054;6.994;2022-09-09T03:44:20;12.15;;;11.45;;
8544;SDS011;4310;51.054;6.994;2022-09-09T03:45:24;12.55;;;11.75;;
8544;SDS011;4310;51.054;6.994;2022-09-09T03:46:28;12.00;;;11.22;;
8544;SDS011;4310;51.054;6.994;2022-09-09T03:47:31;12.85;;;11.95;;
8544;SDS011;4310;51.054;6.994;2022-09-09T03:48:35;12.50;;;11.43;;
8544;SDS011;4310;51.054;6.994;2022-09-09T03:49:39;12.30;;;11.53;;
8544;SDS011;4310;51.054;6.994;2022-09-09T03:50:44;11.15;;;10.45;;
8544;SDS011;4310;51.054;6.994;2022-09-09T03:52:59;12.43;;;11.70;;
8544;SDS011;4310;51.054;6.994;2022-09-09T03:54:03;11.78;;;11.15;;
8544;SDS011;4310;51.054;6.994;2022-09-09T03:55:09;12.33;;;11.63;;
8544;SDS011;4310;51.054;6.994;2022-09-09T03:56:13;11.70;;;11.00;;
8544;SDS011;4310;51.054;6.994;2022-09-09T03:57:17;11.43;;;10.85;;
8544;SDS011;4310;51.054;6.994;2022-09-09T03:58:21;13.30;;;12.58;;
8544;SDS011;4310;51.054;6.994;2022-09-09T04:00:37;12.70;;;11.88;;
8544;SDS011;4310;51.054;6.994;2022-09-09T04:01:44;14.00;;;13.03;;
8544;SDS011;4310;51.054;6.994;2022-09-09T04:02:49;12.85;;;11.95;;
8544;SDS011;4310;51.054;6.994;2022-09-09T04:03:54;12.15;;;11.45;;
8544;SDS011;4310;51.054;6.994;2022-09-09T04:05:00;10.30;;;9.68;;
8544;SDS011;4310;51.054;6.994;2022-09-09T04:07:15;12.03;;;11.17;;
8544;SDS011;4310;51.054;6.994;2022-09-09T04:08:19;11.53;;;10.72;;
8544;SDS011;4310;51.054;6.994;2022-09-09T04:09:23;10.60;;;9.85;;
8544;SDS011;4310;51.054;6.994;2022-09-09T04:10:26;10.23;;;9.68;;
8544;SDS011;4310;51.054;6.994;2022-09-09T04:11:31;11.08;;;10.35;;
8544;SDS011;4310;51.054;6.994;2022-09-09T04:12:34;11.70;;;10.90;;
8544;SDS011;4310;51.054;6.994;2022-09-09T04:13:38;11.00;;;10.30;;
8544;SDS011;4310;51.054;6.994;2022-09-09T04:14:42;10.80;;;10.08;;
8544;SDS011;4310;51.054;6.994;2022-09-09T04:15:50;10.45;;;9.58;;
8544;SDS011;4310;51.054;6.994;2022-09-09T04:16:54;9.90;;;9.20;;
8544;SDS011;4310;51.054;6.994;2022-09-09T04:17:58;9.18;;;8.58;;
8544;SDS011;4310;51.054;6.994;2022-09-09T04:19:03;10.10;;;9.30;;
8544;SDS011;4310;51.054;6.994;2022-09-09T04:21:18;9.75;;;9.08;;
8544;SDS011;4310;51.054;6.994;2022-09-09T04:22:23;10.15;;;9.48;;
8544;SDS011;4310;51.054;6.994;2022-09-09T04:23:27;8.85;;;8.15;;
8544;SDS011;4310;51.054;6.994;2022-09-09T04:24:31;9.33;;;8.68;;
8544;SDS011;4310;51.054;6.994;2022-09-09T04:25:35;9.68;;;8.90;;
8544;SDS011;4310;51.054;6.994;2022-09-09T04:26:40;8.80;;;8.30;;
8544;SDS011;4310;51.054;6.994;2022-09-09T04:27:44;9.50;;;8.80;;
8544;SDS011;4310;51.054;6.994;2022-09-09T04:28:47;9.23;;;8.60;;
8544;SDS011;4310;51.054;6.994;2022-09-09T04:31:06;9.20;;;8.50;;
8544;SDS011;4310;51.054;6.994;2022-09-09T04:32:11;8.43;;;7.92;;
8544;SDS011;4310;51.054;6.994;2022-09-09T04:33:15;8.75;;;8.15;;
8544;SDS011;4310;51.054;6.994;2022-09-09T04:34:19;10.20;;;9.40;;
8544;SDS011;4310;51.054;6.994;2022-09-09T04:35:23;10.08;;;9.33;;
8544;SDS011;4310;51.054;6.994;2022-09-09T04:36:27;9.90;;;9.20;;
8544;SDS011;4310;51.054;6.994;2022-09-09T04:37:31;10.20;;;9.20;;
8544;SDS011;4310;51.054;6.994;2022-09-09T04:38:35;9.88;;;9.08;;
8544;SDS011;4310;51.054;6.994;2022-09-09T04:39:38;10.50;;;9.70;;
8544;SDS011;4310;51.054;6.994;2022-09-09T04:41:54;10.55;;;9.68;;
8544;SDS011;4310;51.054;6.994;2022-09-09T04:42:58;8.98;;;8.28;;
8544;SDS011;4310;51.054;6.994;2022-09-09T04:44:01;8.73;;;8.03;;
8544;SDS011;4310;51.054;6.994;2022-09-09T04:45:06;9.63;;;8.83;;
8544;SDS011;4310;51.054;6.994;2022-09-09T04:46:12;7.60;;;7.15;;
8544;SDS011;4310;51.054;6.994;2022-09-09T04:47:15;8.20;;;7.60;;
8544;SDS011;4310;51.054;6.994;2022-09-09T04:48:20;9.77;;;8.97;;
8544;SDS011;4310;51.054;6.994;2022-09-09T04:49:23;9.03;;;8.38;;
8544;SDS011;4310;51.054;6.994;2022-09-09T04:51:39;9.05;;;8.40;;
8544;SDS011;4310;51.054;6.994;2022-09-09T04:52:43;9.40;;;8.70;;
8544;SDS011;4310;51.054;6.994;2022-09-09T04:53:47;9.68;;;8.98;;
8544;SDS011;4310;51.054;6.994;2022-09-09T04:54:52;8.83;;;8.15;;
8544;SDS011;4310;51.054;6.994;2022-09-09T04:56:01;9.68;;;9.03;;
8544;SDS011;4310;51.054;6.994;2022-09-09T04:57:05;9.60;;;9.00;;
8544;SDS011;4310;51.054;6.994;2022-09-09T04:58:09;9.13;;;8.53;;
8544;SDS011;4310;51.054;6.994;2022-09-09T04:59:13;8.95;;;8.15;;
8544;SDS011;4310;51.054;6.994;2022-09-09T05:00:16;9.03;;;8.35;;
8544;SDS011;4310;51.054;6.994;2022-09-09T05:01:21;8.75;;;8.10;;
8544;SDS011;4310;51.054;6.994;2022-09-09T05:02:25;9.38;;;8.88;;
8544;SDS011;4310;51.054;6.994;2022-09-09T05:03:29;8.83;;;8.23;;
8544;SDS011;4310;51.054;6.994;2022-09-09T05:04:33;9.23;;;8.45;;
8544;SDS011;4310;51.054;6.994;2022-09-09T05:05:36;9.73;;;9.03;;
8544;SDS011;4310;51.054;6.994;2022-09-09T05:06:40;9.30;;;8.47;;
8544;SDS011;4310;51.054;6.994;2022-09-09T05:08:56;9.78;;;7.92;;
8544;SDS011;4310;51.054;6.994;2022-09-09T05:10:00;8.65;;;7.95;;
8544;SDS011;4310;51.054;6.994;2022-09-09T05:11:12;9.10;;;8.28;;
8544;SDS011;4310;51.054;6.994;2022-09-09T05:12:16;7.85;;;7.17;;
8544;SDS011;4310;51.054;6.994;2022-09-09T05:13:20;8.15;;;7.37;;
8544;SDS011;4310;51.054;6.994;2022-09-09T05:14:25;7.50;;;6.90;;
8544;SDS011;4310;51.054;6.994;2022-09-09T05:15:29;7.40;;;6.70;;
8544;SDS011;4310;51.054;6.994;2022-09-09T05:16:33;6.72;;;6.22;;
8544;SDS011;4310;51.054;6.994;2022-09-09T05:18:48;6.83;;;6.22;;
8544;SDS011;4310;51.054;6.994;2022-09-09T05:19:53;7.47;;;6.78;;
8544;SDS011;4310;51.054;6.994;2022-09-09T05:20:58;5.90;;;5.40;;
8544;SDS011;4310;51.054;6.994;2022-09-09T05:22:03;7.37;;;6.00;;
8544;SDS011;4310;51.054;6.994;2022-09-09T05:23:08;6.12;;;5.62;;
8544;SDS011;4310;51.054;6.994;2022-09-09T05:24:13;6.70;;;6.00;;
8544;SDS011;4310;51.054;6.994;2022-09-09T05:25:17;7.05;;;6.42;;
8544;SDS011;4310;51.054;6.994;2022-09-09T05:26:22;8.05;;;7.37;;
8544;SDS011;4310;51.054;6.994;2022-09-09T05:27:26;6.33;;;5.65;;
8544;SDS011;4310;51.054;6.994;2022-09-09T05:28:30;7.50;;;6.53;;
8544;SDS011;4310;51.054;6.994;2022-09-09T05:29:34;8.73;;;8.20;;
8544;SDS011;4310;51.054;6.994;2022-09-09T05:30:39;9.75;;;8.95;;
8544;SDS011;4310;51.054;6.994;2022-09-09T05:31:43;11.68;;;10.88;;
8544;SDS011;4310;51.054;6.994;2022-09-09T05:32:47;16.37;;;15.03;;
8544;SDS011;4310;51.054;6.994;2022-09-09T05:33:51;17.33;;;16.00;;
8544;SDS011;4310;51.054;6.994;2022-09-09T05:34:55;18.00;;;17.00;;
8544;SDS011;4310;51.054;6.994;2022-09-09T05:36:00;19.05;;;17.62;;
8544;SDS011;4310;51.054;6.994;2022-09-09T05:37:05;18.67;;;17.55;;
8544;SDS011;4310;51.054;6.994;2022-09-09T05:38:10;20.55;;;19.35;;
8544;SDS011;4310;51.054;6.994;2022-09-09T05:39:13;23.45;;;22.07;;
8544;SDS011;4310;51.054;6.994;2022-09-09T05:40:17;19.75;;;18.60;;
8544;SDS011;4310;51.054;6.994;2022-09-09T05:42:33;21.23;;;19.92;;
8544;SDS011;4310;51.054;6.994;2022-09-09T05:43:37;22.60;;;21.20;;
8544;SDS011;4310;51.054;6.994;2022-09-09T05:44:40;21.75;;;20.45;;
8544;SDS011;4310;51.054;6.994;2022-09-09T05:45:46;23.65;;;22.37;;
8544;SDS011;4310;51.054;6.994;2022-09-09T05:46:50;18.87;;;17.87;;
8544;SDS011;4310;51.054;6.994;2022-09-09T05:47:54;19.02;;;18.05;;
8544;SDS011;4310;51.054;6.994;2022-09-09T05:48:58;19.60;;;18.40;;
8544;SDS011;4310;51.054;6.994;2022-09-09T05:50:02;18.50;;;17.48;;
8544;SDS011;4310;51.054;6.994;2022-09-09T05:51:07;18.30;;;17.35;;
8544;SDS011;4310;51.054;6.994;2022-09-09T05:52:11;17.12;;;16.20;;
8544;SDS011;4310;51.054;6.994;2022-09-09T05:53:15;17.02;;;16.02;;
8544;SDS011;4310;51.054;6.994;2022-09-09T05:54:20;17.60;;;16.60;;
8544;SDS011;4310;51.054;6.994;2022-09-09T05:55:24;17.02;;;16.02;;
8544;SDS011;4310;51.054;6.994;2022-09-09T05:56:28;16.12;;;15.18;;
8544;SDS011;4310;51.054;6.994;2022-09-09T05:57:32;17.62;;;16.52;;
8544;SDS011;4310;51.054;6.994;2022-09-09T05:58:36;18.60;;;17.60;;
8544;SDS011;4310;51.054;6.994;2022-09-09T05:59:41;17.82;;;16.75;;
8544;SDS011;4310;51.054;6.994;2022-09-09T06:00:44;21.65;;;20.45;;
8544;SDS011;4310;51.054;6.994;2022-09-09T06:01:48;21.07;;;19.77;;
8544;SDS011;4310;51.054;6.994;2022-09-09T06:02:52;18.73;;;17.77;;
8544;SDS011;4310;51.054;6.994;2022-09-09T06:03:56;21.75;;;20.57;;
8544;SDS011;4310;51.054;6.994;2022-09-09T06:05:00;21.02;;;19.92;;
8544;SDS011;4310;51.054;6.994;2022-09-09T06:06:04;23.52;;;22.27;;
8544;SDS011;4310;51.054;6.994;2022-09-09T06:07:08;24.70;;;23.40;;
8544;SDS011;4310;51.054;6.994;2022-09-09T06:08:12;26.97;;;25.55;;
8544;SDS011;4310;51.054;6.994;2022-09-09T06:09:16;26.20;;;24.75;;
8544;SDS011;4310;51.054;6.994;2022-09-09T06:10:19;24.35;;;22.70;;
8544;SDS011;4310;51.054;6.994;2022-09-09T06:11:24;25.27;;;23.87;;
8544;SDS011;4310;51.054;6.994;2022-09-09T06:12:28;24.95;;;23.75;;
8544;SDS011;4310;51.054;6.994;2022-09-09T06:13:32;22.80;;;21.73;;
8544;SDS011;4310;51.054;6.994;2022-09-09T06:14:36;22.45;;;21.35;;
8544;SDS011;4310;51.054;6.994;2022-09-09T06:16:51;24.63;;;23.32;;
8544;SDS011;4310;51.054;6.994;2022-09-09T06:17:55;22.40;;;21.25;;
8544;SDS011;4310;51.054;6.994;2022-09-09T06:18:58;20.43;;;19.12;;
8544;SDS011;4310;51.054;6.994;2022-09-09T06:20:03;20.97;;;19.77;;
8544;SDS011;4310;51.054;6.994;2022-09-09T06:21:08;22.80;;;21.35;;
8544;SDS011;4310;51.054;6.994;2022-09-09T06:22:12;20.47;;;19.53;;
8544;SDS011;4310;51.054;6.994;2022-09-09T06:23:16;22.67;;;21.37;;
8544;SDS011;4310;51.054;6.994;2022-09-09T06:24:20;21.00;;;19.90;;
8544;SDS011;4310;51.054;6.994;2022-09-09T06:25:24;18.32;;;17.12;;
8544;SDS011;4310;51.054;6.994;2022-09-09T06:26:29;18.35;;;17.25;;
8544;SDS011;4310;51.054;6.994;2022-09-09T06:27:33;19.92;;;18.80;;
8544;SDS011;4310;51.054;6.994;2022-09-09T06:28:37;19.90;;;18.67;;
8544;SDS011;4310;51.054;6.994;2022-09-09T06:29:40;20.83;;;19.67;;
8544;SDS011;4310;51.054;6.994;2022-09-09T06:30:44;19.35;;;18.07;;
8544;SDS011;4310;51.054;6.994;2022-09-09T06:31:48;18.23;;;17.27;;
8544;SDS011;4310;51.054;6.994;2022-09-09T06:32:51;18.60;;;17.50;;
8544;SDS011;4310;51.054;6.994;2022-09-09T06:33:56;19.40;;;18.30;;
8544;SDS011;4310;51.054;6.994;2022-09-09T06:34:59;19.15;;;18.07;;
8544;SDS011;4310;51.054;6.994;2022-09-09T06:36:04;17.77;;;16.75;;
8544;SDS011;4310;51.054;6.994;2022-09-09T06:37:08;17.92;;;16.73;;
8544;SDS011;4310;51.054;6.994;2022-09-09T06:38:12;16.50;;;15.60;;
8544;SDS011;4310;51.054;6.994;2022-09-09T06:39:16;15.45;;;14.63;;
8544;SDS011;4310;51.054;6.994;2022-09-09T06:40:20;18.77;;;17.62;;
8544;SDS011;4310;51.054;6.994;2022-09-09T06:41:25;14.58;;;13.72;;
8544;SDS011;4310;51.054;6.994;2022-09-09T06:42:29;14.63;;;13.83;;
8544;SDS011;4310;51.054;6.994;2022-09-09T06:43:33;15.53;;;14.50;;
8544;SDS011;4310;51.054;6.994;2022-09-09T06:44:37;14.25;;;13.32;;
8544;SDS011;4310;51.054;6.994;2022-09-09T06:45:41;13.58;;;12.58;;
8544;SDS011;4310;51.054;6.994;2022-09-09T06:46:44;11.28;;;10.48;;
8544;SDS011;4310;51.054;6.994;2022-09-09T06:47:50;12.20;;;11.12;;
8544;SDS011;4310;51.054;6.994;2022-09-09T06:48:54;11.20;;;10.53;;
8544;SDS011;4310;51.054;6.994;2022-09-09T06:50:00;11.35;;;10.48;;
8544;SDS011;4310;51.054;6.994;2022-09-09T06:51:04;9.95;;;9.35;;
8544;SDS011;4310;51.054;6.994;2022-09-09T06:52:08;10.03;;;9.43;;
8544;SDS011;4310;51.054;6.994;2022-09-09T06:53:12;9.00;;;8.30;;
8544;SDS011;4310;51.054;6.994;2022-09-09T06:54:17;8.13;;;7.47;;
8544;SDS011;4310;51.054;6.994;2022-09-09T06:55:22;7.80;;;7.00;;
8544;SDS011;4310;51.054;6.994;2022-09-09T06:56:27;6.30;;;5.80;;
8544;SDS011;4310;51.054;6.994;2022-09-09T06:57:30;5.58;;;5.10;;
8544;SDS011;4310;51.054;6.994;2022-09-09T06:58:34;5.33;;;4.83;;
8544;SDS011;4310;51.054;6.994;2022-09-09T06:59:38;6.10;;;5.60;;
8544;SDS011;4310;51.054;6.994;2022-09-09T07:00:42;6.58;;;4.35;;
8544;SDS011;4310;51.054;6.994;2022-09-09T07:01:46;5.28;;;3.90;;
8544;SDS011;4310;51.054;6.994;2022-09-09T07:02:49;4.87;;;2.93;;
8544;SDS011;4310;51.054;6.994;2022-09-09T07:03:54;4.47;;;2.37;;